createdAt,value
2017-09-21T00:01:17.688Z,99.90
2017-09-21T00:03:43.840Z,99.90
2017-09-21T00:06:10.040Z,99.90
2017-09-21T00:08:36.935Z,99.90
2017-09-21T00:11:03.108Z,99.90
2017-09-21T00:13:29.252Z,99.90
2017-09-21T00:15:56.195Z,99.90
2017-09-21T00:18:22.357Z,99.90
2017-09-21T00:20:48.535Z,99.90
2017-09-21T00:23:15.425Z,99.90
2017-09-21T00:25:41.618Z,99.90
2017-09-21T00:28:07.764Z,99.90
2017-09-21T00:30:33.919Z,99.90
2017-09-21T00:33:00.851Z,99.90
2017-09-21T00:35:28.828Z,99.90
2017-09-21T00:37:55.192Z,99.90
2017-09-21T00:40:21.344Z,99.90
2017-09-21T00:42:47.559Z,99.90
2017-09-21T00:45:13.758Z,99.90
2017-09-21T00:47:40.731Z,99.90
2017-09-21T00:50:06.922Z,99.90
2017-09-21T00:52:33.083Z,99.90
2017-09-21T00:54:59.283Z,99.90
2017-09-21T00:57:25.443Z,99.90
2017-09-21T00:59:52.381Z,99.90
2017-09-21T01:02:19.283Z,99.90
2017-09-21T01:04:45.463Z,99.90
2017-09-21T01:07:11.648Z,99.90
2017-09-21T01:09:38.562Z,99.90
2017-09-21T01:12:05.458Z,99.90
2017-09-21T01:14:32.451Z,99.90
2017-09-21T01:16:58.620Z,99.90
2017-09-21T01:19:24.832Z,99.90
2017-09-21T01:21:51.011Z,99.90
2017-09-21T01:24:19.207Z,99.90
2017-09-21T01:26:45.383Z,99.90
2017-09-21T01:29:11.587Z,99.90
2017-09-21T01:31:37.779Z,99.90
2017-09-21T01:34:04.708Z,99.90
2017-09-21T01:36:30.915Z,99.90
2017-09-21T01:38:57.864Z,99.90
2017-09-21T01:41:24.047Z,99.90
2017-09-21T01:43:50.252Z,99.90
2017-09-21T01:46:16.415Z,99.90
2017-09-21T01:48:42.599Z,99.90
2017-09-21T01:51:09.550Z,99.90
2017-09-21T01:53:35.731Z,99.90
2017-09-21T01:56:02.043Z,99.90
2017-09-21T01:58:28.232Z,99.90
2017-09-21T02:00:55.160Z,99.90
2017-09-21T02:03:21.319Z,99.90
2017-09-21T02:05:48.259Z,99.90
2017-09-21T02:08:15.162Z,99.90
2017-09-21T02:10:41.374Z,99.90
2017-09-21T02:13:07.554Z,99.90
2017-09-21T02:15:33.775Z,99.90
2017-09-21T02:17:59.944Z,99.90
2017-09-21T02:20:26.858Z,99.90
2017-09-21T02:22:53.031Z,99.90
2017-09-21T02:25:19.196Z,99.90
2017-09-21T02:27:46.129Z,99.90
2017-09-21T02:30:13.027Z,99.90
2017-09-21T02:32:39.247Z,99.90
2017-09-21T02:37:38.298Z,99.90
2017-09-21T02:40:04.462Z,99.90
2017-09-21T02:42:31.399Z,99.90
2017-09-21T02:44:58.278Z,99.90
2017-09-21T02:47:24.835Z,99.90
2017-09-21T02:49:50.999Z,99.90
2017-09-21T02:52:17.184Z,99.90
2017-09-21T02:54:44.084Z,99.90
2017-09-21T02:57:12.295Z,99.90
2017-09-21T02:59:38.480Z,99.90
2017-09-21T03:02:05.372Z,99.90
2017-09-21T03:04:31.556Z,99.90
2017-09-21T03:06:57.718Z,99.90
2017-09-21T03:09:23.911Z,99.90
2017-09-21T03:11:50.051Z,99.90
2017-09-21T03:14:16.218Z,99.90
2017-09-21T03:16:42.389Z,99.90
2017-09-21T03:19:08.573Z,99.90
2017-09-21T03:21:34.728Z,99.90
2017-09-21T03:24:01.635Z,99.90
2017-09-21T03:26:27.819Z,99.90
2017-09-21T03:28:53.970Z,99.90
2017-09-21T03:31:20.147Z,99.90
2017-09-21T03:33:46.308Z,99.90
2017-09-21T03:36:13.225Z,99.90
2017-09-21T03:38:39.380Z,99.90
2017-09-21T03:41:05.551Z,99.90
2017-09-21T03:43:31.717Z,99.90
2017-09-21T03:45:57.887Z,99.90
2017-09-21T03:48:24.784Z,99.90
2017-09-21T03:50:51.689Z,99.90
2017-09-21T03:53:17.899Z,99.90
2017-09-21T03:55:44.055Z,99.90
2017-09-21T03:58:10.232Z,99.90
2017-09-21T04:00:36.422Z,99.90
2017-09-21T04:03:02.600Z,99.90
2017-09-21T04:05:28.776Z,99.90
2017-09-21T04:07:54.967Z,99.90
2017-09-21T04:10:21.123Z,99.90
2017-09-21T04:12:47.290Z,99.90
2017-09-21T04:15:13.480Z,99.90
2017-09-21T04:17:40.411Z,99.90
2017-09-21T04:20:06.621Z,99.90
2017-09-21T04:22:32.826Z,99.90
2017-09-21T04:24:58.982Z,99.90
2017-09-21T04:27:25.176Z,99.90
2017-09-21T04:29:51.335Z,99.90
2017-09-21T04:32:18.284Z,99.90
2017-09-21T04:34:44.463Z,99.90
2017-09-21T04:37:10.621Z,99.90
2017-09-21T04:39:36.816Z,99.90
2017-09-21T04:42:03.767Z,99.90
2017-09-21T04:44:29.938Z,99.90
2017-09-21T04:46:56.110Z,99.90
2017-09-21T04:49:22.288Z,99.90
2017-09-21T04:51:49.182Z,99.90
2017-09-21T04:54:15.368Z,99.90
2017-09-21T04:56:42.313Z,99.90
2017-09-21T04:59:08.513Z,99.90
2017-09-21T05:01:34.679Z,99.90
2017-09-21T05:04:01.603Z,99.90
2017-09-21T05:06:27.792Z,99.90
2017-09-21T05:08:54.012Z,99.90
2017-09-21T05:11:20.168Z,99.90
2017-09-21T05:13:46.336Z,99.90
2017-09-21T05:16:12.527Z,99.90
2017-09-21T05:18:38.685Z,99.90
2017-09-21T05:21:04.874Z,99.90
2017-09-21T05:23:31.759Z,99.90
2017-09-21T05:25:57.935Z,99.90
2017-09-21T05:28:24.103Z,99.90
2017-09-21T05:30:50.282Z,99.90
2017-09-21T05:33:17.163Z,99.90
2017-09-21T05:35:43.371Z,99.90
2017-09-21T05:38:09.537Z,99.90
2017-09-21T05:40:36.471Z,99.90
2017-09-21T05:43:02.632Z,99.90
2017-09-21T05:45:28.793Z,99.90
2017-09-21T05:47:55.706Z,99.90
2017-09-21T05:50:21.890Z,99.90
2017-09-21T05:52:48.039Z,99.90
2017-09-21T05:55:14.216Z,99.90
2017-09-21T05:57:40.371Z,99.90
2017-09-21T06:00:06.523Z,99.90
2017-09-21T06:02:32.704Z,99.90
2017-09-21T06:04:59.604Z,99.90
2017-09-21T06:07:25.791Z,99.90
2017-09-21T06:09:51.945Z,99.90
2017-09-21T06:12:18.144Z,99.90
2017-09-21T06:14:44.339Z,99.90
2017-09-21T06:17:11.598Z,99.90
2017-09-21T06:19:37.763Z,99.90
2017-09-21T06:22:03.942Z,99.90
2017-09-21T06:24:30.095Z,99.90
2017-09-21T06:26:56.243Z,99.90
2017-09-21T06:29:22.644Z,99.90
2017-09-21T06:31:48.794Z,99.90
2017-09-21T06:34:15.146Z,99.90
2017-09-21T06:36:41.307Z,99.90
2017-09-21T06:39:07.491Z,99.90
2017-09-21T06:41:33.640Z,99.90
2017-09-21T06:43:59.841Z,99.90
2017-09-21T06:46:26.029Z,99.90
2017-09-21T06:48:52.223Z,99.90
2017-09-21T06:51:19.121Z,99.90
2017-09-21T06:53:45.315Z,99.90
2017-09-21T06:56:11.511Z,99.90
2017-09-21T06:58:37.684Z,99.90
2017-09-21T07:01:11.503Z,99.90
2017-09-21T07:03:37.671Z,99.90
2017-09-21T07:06:03.864Z,99.90
2017-09-21T07:08:30.019Z,99.90
2017-09-21T07:10:56.971Z,99.90
2017-09-21T07:13:25.170Z,99.90
2017-09-21T07:15:51.404Z,99.90
2017-09-21T07:18:17.571Z,99.90
2017-09-21T07:20:45.759Z,99.90
2017-09-21T07:23:11.937Z,99.90
2017-09-21T07:25:38.139Z,99.90
2017-09-21T07:28:05.022Z,99.90
2017-09-21T07:30:31.210Z,99.90
2017-09-21T07:32:57.393Z,99.90
2017-09-21T07:35:24.319Z,99.90
2017-09-21T07:37:51.219Z,99.90
2017-09-21T07:40:17.431Z,99.90
2017-09-21T07:42:43.632Z,99.90
2017-09-21T07:45:09.827Z,99.90
2017-09-21T07:47:35.977Z,99.90
2017-09-21T07:50:02.208Z,99.90
2017-09-21T07:52:28.475Z,99.90
2017-09-21T07:54:54.646Z,99.90
2017-09-21T07:57:21.559Z,99.90
2017-09-21T07:59:47.709Z,99.90
2017-09-21T08:02:13.891Z,99.90
2017-09-21T08:04:40.075Z,99.90
2017-09-21T08:07:06.256Z,99.90
2017-09-21T08:09:32.428Z,99.90
2017-09-21T08:11:58.633Z,99.90
2017-09-21T08:14:25.533Z,99.90
2017-09-21T08:16:51.764Z,99.90
2017-09-21T08:19:17.913Z,99.90
2017-09-21T08:21:44.819Z,99.90
2017-09-21T08:24:11.803Z,99.90
2017-09-21T08:26:37.982Z,99.90
2017-09-21T08:29:04.875Z,99.90
2017-09-21T08:31:31.098Z,99.90
2017-09-21T08:33:57.259Z,99.90
2017-09-21T08:36:24.191Z,99.90
2017-09-21T08:38:51.091Z,99.90
2017-09-21T08:41:17.367Z,99.90
2017-09-21T08:43:43.519Z,99.90
2017-09-21T08:46:09.819Z,99.90
2017-09-21T08:48:35.967Z,99.90
2017-09-21T08:51:02.119Z,99.90
2017-09-21T08:53:28.311Z,99.90
2017-09-21T08:55:55.192Z,99.90
2017-09-21T08:58:21.390Z,99.90
2017-09-21T09:00:47.552Z,99.90
2017-09-21T09:03:14.471Z,99.90
2017-09-21T09:05:40.639Z,99.90
2017-09-21T09:08:06.827Z,99.90
2017-09-21T09:10:33.751Z,99.90
2017-09-21T09:13:00.646Z,99.90
2017-09-21T09:15:26.935Z,99.90
2017-09-21T09:17:53.087Z,99.90
2017-09-21T09:20:19.259Z,99.90
2017-09-21T09:22:45.656Z,99.90
2017-09-21T09:25:11.839Z,99.90
2017-09-21T09:27:38.010Z,99.90
2017-09-21T09:30:04.188Z,99.90
2017-09-21T09:32:31.111Z,99.90
2017-09-21T09:34:57.991Z,99.90
2017-09-21T09:37:24.163Z,99.90
2017-09-21T09:39:51.054Z,99.90
2017-09-21T09:42:18.055Z,99.90
2017-09-21T09:44:44.196Z,99.90
2017-09-21T09:47:10.379Z,99.90
2017-09-21T09:49:36.538Z,99.90
2017-09-21T09:52:02.699Z,99.90
2017-09-21T09:54:28.847Z,99.90
2017-09-21T09:56:55.014Z,99.90
2017-09-21T09:59:21.160Z,99.90
2017-09-21T10:01:47.315Z,99.90
2017-09-21T10:04:13.472Z,99.90
2017-09-21T10:06:39.659Z,99.90
2017-09-21T10:09:06.544Z,99.90
2017-09-21T10:11:33.449Z,99.90
2017-09-21T10:13:59.632Z,99.90
2017-09-21T10:16:25.860Z,99.90
2017-09-21T10:18:51.996Z,99.90
2017-09-21T10:21:18.209Z,99.90
2017-09-21T10:23:44.372Z,99.90
2017-09-21T10:26:10.535Z,99.90
2017-09-21T10:28:36.694Z,99.90
2017-09-21T10:31:02.856Z,99.90
2017-09-21T10:33:29.084Z,99.90
2017-09-21T10:35:55.223Z,99.90
2017-09-21T10:38:21.384Z,99.90
2017-09-21T10:40:47.554Z,99.90
2017-09-21T10:43:13.699Z,99.90
2017-09-21T10:45:39.863Z,99.90
2017-09-21T10:48:06.008Z,99.90
2017-09-21T10:50:32.917Z,99.90
2017-09-21T10:52:59.083Z,99.90
2017-09-21T10:55:25.250Z,99.90
2017-09-21T10:57:51.400Z,99.90
2017-09-21T11:00:17.645Z,99.90
2017-09-21T11:02:43.799Z,99.90
2017-09-21T11:05:10.087Z,99.90
2017-09-21T11:07:36.364Z,99.90
2017-09-21T11:10:02.555Z,99.90
2017-09-21T11:12:29.463Z,99.90
2017-09-21T11:14:55.691Z,99.90
2017-09-21T11:17:22.615Z,99.90
2017-09-21T11:19:48.759Z,99.90
2017-09-21T11:22:14.907Z,99.90
2017-09-21T11:24:41.080Z,99.90
2017-09-21T11:27:07.988Z,99.90
2017-09-21T11:29:34.151Z,99.90
2017-09-21T11:32:00.307Z,99.90
2017-09-21T11:34:26.479Z,99.90
2017-09-21T11:36:52.611Z,99.90
2017-09-21T11:39:19.718Z,99.90
2017-09-21T11:41:45.865Z,99.90
2017-09-21T11:44:12.019Z,99.90
2017-09-21T11:46:38.987Z,99.90
2017-09-21T11:49:05.168Z,99.90
2017-09-21T11:51:31.367Z,99.90
2017-09-21T11:53:57.516Z,99.90
2017-09-21T11:56:23.690Z,99.90
2017-09-21T11:58:49.847Z,99.90
2017-09-21T12:01:16.037Z,99.90
2017-09-21T12:03:42.943Z,99.90
2017-09-21T12:06:09.119Z,99.90
2017-09-21T12:08:35.268Z,99.90
2017-09-21T12:11:01.539Z,99.90
2017-09-21T12:13:27.696Z,99.90
2017-09-21T12:15:53.853Z,99.90
2017-09-21T12:18:20.012Z,99.90
2017-09-21T12:20:46.160Z,99.90
2017-09-21T12:23:13.067Z,99.90
2017-09-21T12:25:39.215Z,99.90
2017-09-21T12:28:05.638Z,99.90
2017-09-21T12:30:31.835Z,99.90
2017-09-21T12:32:58.760Z,99.90
2017-09-21T12:35:25.664Z,99.90
2017-09-21T12:37:51.822Z,99.90
2017-09-21T12:40:17.992Z,99.90
2017-09-21T12:42:44.140Z,99.90
2017-09-21T12:45:11.569Z,99.90
2017-09-21T12:47:37.763Z,99.90
2017-09-21T12:50:04.135Z,97.80
2017-09-21T12:52:30.647Z,93.00
2017-09-21T12:54:56.795Z,90.30
2017-09-21T12:57:22.968Z,82.50
2017-09-21T12:59:49.171Z,78.40
2017-09-21T13:02:16.072Z,64.80
2017-09-21T13:04:42.235Z,64.80
2017-09-21T13:07:08.412Z,62.40
2017-09-21T13:09:34.569Z,62.70
2017-09-21T13:12:00.785Z,60.00
2017-09-21T13:14:26.982Z,63.20
2017-09-21T13:16:53.264Z,72.10
2017-09-21T13:19:19.411Z,78.70
2017-09-21T13:21:45.592Z,86.60
2017-09-21T13:24:11.751Z,90.70
2017-09-21T13:26:37.895Z,92.80
2017-09-21T13:29:04.092Z,94.90
2017-09-21T13:34:11.902Z,97.00
2017-09-21T13:36:38.056Z,97.00
2017-09-21T13:39:04.959Z,98.60
2017-09-21T13:41:31.116Z,98.50
2017-09-21T13:43:57.279Z,98.70
2017-09-21T13:46:23.427Z,99.60
2017-09-21T13:48:57.328Z,99.80
2017-09-21T13:51:24.207Z,99.90
2017-09-21T13:53:50.383Z,99.90
2017-09-21T13:56:16.579Z,99.90
2017-09-21T13:58:43.487Z,99.90
2017-09-21T14:01:09.659Z,99.90
2017-09-21T14:03:35.816Z,99.90
2017-09-21T14:06:01.986Z,99.90
2017-09-21T14:08:28.139Z,99.30
2017-09-21T14:10:54.317Z,99.90
2017-09-21T14:13:20.488Z,99.90
2017-09-21T14:15:47.415Z,99.90
2017-09-21T14:18:14.375Z,99.90
2017-09-21T14:20:40.655Z,99.90
2017-09-21T14:23:07.543Z,98.30
2017-09-21T14:25:34.451Z,99.00
2017-09-21T14:28:00.623Z,99.00
2017-09-21T14:30:26.771Z,99.90
2017-09-21T14:32:52.939Z,99.90
2017-09-21T14:35:19.102Z,99.90
2017-09-21T14:37:45.495Z,99.90
2017-09-21T14:40:12.379Z,99.90
2017-09-21T14:42:38.537Z,99.90
2017-09-21T14:45:05.444Z,99.90
2017-09-21T14:47:31.687Z,99.90
2017-09-21T14:49:58.645Z,99.90
2017-09-21T14:52:24.800Z,99.90
2017-09-21T14:54:51.100Z,99.90
2017-09-21T14:57:17.251Z,99.90
2017-09-21T14:59:44.131Z,99.90
2017-09-21T15:02:10.299Z,99.90
2017-09-21T15:04:37.195Z,99.90
2017-09-21T15:07:03.379Z,99.90
2017-09-21T15:09:29.527Z,99.90
2017-09-21T15:11:55.735Z,99.90
2017-09-21T15:14:21.979Z,98.50
2017-09-21T15:16:48.915Z,95.60
2017-09-21T15:19:15.795Z,95.20
2017-09-21T15:21:42.091Z,94.90
2017-09-21T15:24:08.300Z,94.70
2017-09-21T15:26:34.435Z,94.20
2017-09-21T15:29:00.604Z,93.60
2017-09-21T15:31:27.519Z,92.20
2017-09-21T15:33:53.707Z,92.50
2017-09-21T15:36:19.855Z,91.30
2017-09-21T15:38:46.040Z,90.60
2017-09-21T15:41:12.233Z,90.90
2017-09-21T15:43:38.395Z,90.80
2017-09-21T15:46:04.556Z,90.30
2017-09-21T15:48:31.039Z,91.70
2017-09-21T15:50:57.939Z,92.60
2017-09-21T15:53:24.088Z,92.60
2017-09-21T15:55:50.991Z,93.90
2017-09-21T15:58:17.168Z,93.80
2017-09-21T16:00:43.339Z,94.50
2017-09-21T16:03:10.224Z,95.10
2017-09-21T16:05:36.468Z,95.20
2017-09-21T16:08:03.343Z,94.80
2017-09-21T16:10:29.650Z,94.80
2017-09-21T16:12:55.796Z,94.40
2017-09-21T16:15:28.963Z,94.80
2017-09-21T16:17:55.135Z,95.80
2017-09-21T16:20:22.059Z,97.70
2017-09-21T16:22:48.220Z,97.70
2017-09-21T16:25:14.400Z,98.90
2017-09-21T16:27:41.320Z,99.90
2017-09-21T16:30:08.247Z,99.90
2017-09-21T16:32:34.412Z,99.90
2017-09-21T16:35:00.581Z,99.90
2017-09-21T16:37:27.635Z,99.90
2017-09-21T16:39:53.808Z,99.90
2017-09-21T16:42:19.967Z,99.90
2017-09-21T16:44:46.110Z,99.90
2017-09-21T16:47:12.287Z,99.90
2017-09-21T16:49:39.227Z,99.90
2017-09-21T16:52:05.459Z,99.90
2017-09-21T16:54:31.599Z,99.90
2017-09-21T16:56:57.755Z,99.90
2017-09-21T16:59:24.663Z,99.90
2017-09-21T17:01:50.859Z,99.90
2017-09-21T17:04:17.071Z,99.90
2017-09-21T17:06:43.244Z,99.90
2017-09-21T17:09:09.412Z,99.90
2017-09-21T17:11:35.559Z,99.90
2017-09-21T17:14:01.727Z,99.90
2017-09-21T17:16:27.894Z,99.90
2017-09-21T17:18:54.185Z,99.90
2017-09-21T17:21:21.111Z,99.90
2017-09-21T17:23:47.279Z,99.90
2017-09-21T17:26:13.443Z,99.90
2017-09-21T17:28:40.328Z,99.90
2017-09-21T17:31:06.507Z,99.90
2017-09-21T17:33:32.667Z,99.90
2017-09-21T17:35:58.848Z,99.90
2017-09-21T17:38:25.020Z,99.90
2017-09-21T17:40:51.963Z,99.90
2017-09-21T17:43:18.863Z,99.90
2017-09-21T17:45:45.041Z,99.90
2017-09-21T17:48:11.219Z,99.90
2017-09-21T17:50:38.391Z,99.90
2017-09-21T17:53:04.547Z,99.90
2017-09-21T17:55:30.710Z,99.90
2017-09-21T17:57:56.923Z,99.90
2017-09-21T18:00:23.071Z,99.90
2017-09-21T18:02:49.248Z,99.90
2017-09-21T18:05:15.391Z,99.90
2017-09-21T18:07:41.750Z,99.90
2017-09-21T18:10:07.887Z,99.90
2017-09-21T18:12:34.024Z,99.90
2017-09-21T18:15:00.196Z,99.90
2017-09-21T18:17:27.399Z,99.90
2017-09-21T18:19:53.578Z,99.90
2017-09-21T18:22:19.722Z,99.90
2017-09-21T18:24:45.946Z,99.90
2017-09-21T18:27:12.112Z,99.90
2017-09-21T18:29:38.283Z,99.90
2017-09-21T18:32:04.442Z,99.90
2017-09-21T18:34:30.610Z,99.90
2017-09-21T18:36:56.759Z,99.90
2017-09-21T18:39:22.975Z,99.90
2017-09-21T18:41:49.187Z,99.90
2017-09-21T18:44:15.510Z,99.90
2017-09-21T18:46:41.651Z,99.90
2017-09-21T18:49:07.863Z,99.90
2017-09-21T18:51:34.189Z,99.90
2017-09-21T18:54:00.355Z,99.90
2017-09-21T18:56:26.536Z,99.90
2017-09-21T18:58:52.702Z,99.90
2017-09-21T19:01:18.975Z,99.90
2017-09-21T19:03:45.868Z,99.90
2017-09-21T19:06:12.059Z,99.90
2017-09-21T19:08:38.275Z,99.90
2017-09-21T19:11:04.497Z,99.90
2017-09-21T19:13:30.666Z,99.90
2017-09-21T19:15:57.552Z,99.90
2017-09-21T19:18:23.760Z,99.90
2017-09-21T19:20:50.102Z,99.90
2017-09-21T19:23:16.263Z,99.90
2017-09-21T19:25:42.412Z,99.90
2017-09-21T19:28:08.615Z,99.90
2017-09-21T19:30:34.768Z,99.90
2017-09-21T19:33:00.934Z,99.90
2017-09-21T19:35:27.084Z,99.90
2017-09-21T19:37:53.294Z,99.90
2017-09-21T19:40:20.196Z,99.90
2017-09-21T19:42:46.368Z,99.90
2017-09-21T19:45:13.259Z,99.90
2017-09-21T19:47:39.439Z,99.90
2017-09-21T19:50:05.607Z,99.90
2017-09-21T19:52:31.774Z,99.90
2017-09-21T19:54:57.978Z,99.90
2017-09-21T19:57:24.131Z,99.90
2017-09-21T19:59:50.335Z,99.90
2017-09-21T20:02:16.531Z,99.90
2017-09-21T20:04:42.751Z,99.90
2017-09-21T20:07:08.957Z,99.90
2017-09-21T20:09:35.151Z,99.90
2017-09-21T20:12:02.039Z,99.90
2017-09-21T20:14:28.242Z,99.90
2017-09-21T20:16:54.463Z,99.90
2017-09-21T20:19:20.689Z,99.90
2017-09-21T20:21:46.855Z,99.90
2017-09-21T20:24:13.088Z,99.90
2017-09-21T20:26:39.229Z,99.90
2017-09-21T20:29:05.404Z,99.90
2017-09-21T20:31:31.539Z,99.90
2017-09-21T20:33:57.714Z,99.90
2017-09-21T20:36:23.872Z,99.90
2017-09-21T20:38:50.048Z,99.90
2017-09-21T20:41:16.201Z,99.90
2017-09-21T20:43:42.379Z,99.90
2017-09-21T20:46:08.581Z,99.90
2017-09-21T20:48:34.748Z,99.90
2017-09-21T20:51:00.952Z,99.90
2017-09-21T20:53:27.863Z,99.90
2017-09-21T20:55:54.063Z,99.90
2017-09-21T20:58:20.216Z,99.90
2017-09-21T21:00:46.407Z,99.90
2017-09-21T21:03:12.555Z,99.90
2017-09-21T21:05:38.802Z,99.90
2017-09-21T21:08:04.954Z,99.90
2017-09-21T21:10:31.123Z,99.90
2017-09-21T21:12:57.275Z,99.90
2017-09-21T21:15:23.477Z,99.90
2017-09-21T21:17:49.619Z,99.90
2017-09-21T21:20:15.807Z,99.90
2017-09-21T21:22:41.948Z,99.90
2017-09-21T21:25:08.372Z,99.90
2017-09-21T21:27:34.560Z,99.90
2017-09-21T21:30:00.722Z,99.90
2017-09-21T21:32:27.631Z,99.90
2017-09-21T21:34:53.828Z,99.90
2017-09-21T21:37:19.980Z,99.90
2017-09-21T21:39:47.000Z,99.90
2017-09-21T21:42:13.151Z,99.90
2017-09-21T21:44:39.352Z,99.90
2017-09-21T21:47:05.527Z,99.90
2017-09-21T21:49:31.702Z,99.90
2017-09-21T21:51:57.898Z,99.90
2017-09-21T21:54:24.806Z,99.90
2017-09-21T21:56:50.962Z,99.90
2017-09-21T21:59:17.183Z,99.90
2017-09-21T22:01:43.323Z,99.90
2017-09-21T22:04:09.504Z,99.90
2017-09-21T22:06:35.679Z,99.90
2017-09-21T22:09:01.887Z,99.90
2017-09-21T22:11:28.135Z,99.90
2017-09-21T22:13:54.442Z,99.90
2017-09-21T22:16:20.616Z,99.90
2017-09-21T22:18:46.764Z,99.90
2017-09-21T22:21:13.679Z,99.90
2017-09-21T22:23:39.834Z,99.90
2017-09-21T22:26:06.023Z,99.90
2017-09-21T22:28:32.963Z,99.90
2017-09-21T22:30:59.128Z,99.90
2017-09-21T22:33:25.288Z,99.90
2017-09-21T22:35:51.459Z,99.90
2017-09-21T22:38:17.639Z,99.90
2017-09-21T22:40:43.827Z,99.90
2017-09-21T22:43:09.970Z,99.90
2017-09-21T22:45:36.141Z,99.90
2017-09-21T22:48:03.063Z,99.90
2017-09-21T22:50:29.214Z,99.90
2017-09-21T22:52:55.643Z,99.90
2017-09-21T22:55:21.803Z,99.90
2017-09-21T22:57:47.975Z,99.90
2017-09-21T23:00:14.132Z,99.90
2017-09-21T23:02:40.308Z,99.90
2017-09-21T23:05:06.460Z,99.90
2017-09-21T23:07:32.667Z,99.90
2017-09-21T23:09:58.831Z,99.90
2017-09-21T23:12:25.071Z,99.90
2017-09-21T23:14:51.239Z,99.90
2017-09-21T23:17:18.119Z,99.90
2017-09-21T23:19:44.326Z,99.90
2017-09-21T23:22:10.470Z,99.90
2017-09-21T23:24:36.638Z,99.90
2017-09-21T23:27:02.795Z,99.90
2017-09-21T23:29:28.966Z,99.90
2017-09-21T23:31:55.149Z,99.90
2017-09-21T23:34:21.328Z,99.90
2017-09-21T23:36:47.491Z,99.90
2017-09-21T23:39:13.660Z,99.90
2017-09-21T23:41:39.812Z,99.90
2017-09-21T23:44:05.974Z,99.90
2017-09-21T23:46:32.125Z,99.90
2017-09-21T23:48:58.371Z,99.90
2017-09-21T23:51:24.516Z,99.90
2017-09-21T23:53:51.438Z,99.90
2017-09-21T23:56:17.614Z,99.90
2017-09-21T23:58:43.763Z,99.90
